Airfield :
LOGIN :

Register | Disclaimer

   EN    FR    IT 

 










Legend :    VFR   Marginal VFR   IFR   Intensive IFR   Very Intensive IFR
Visi :
Ceiling :
>= 8 km
>= 3000ft
5 to 8 km
1000 to 3000 ft
1500m to 5 km
500 to 1000 ft
800 to 1500m
200 to 500 ft
< 800m
< 200 ft
Symbols :   Thunderstorms  Fog  Heavy snow  Heavy precipitations  Wind > 20 kt
SIGMETs :     Misc.  Thunderstorms  Icing  Turbulence  Mountain Waves  Volcanic Ashes






- Airport Elevation : 17 ft
- IATA code : MHQ


EFMA - Mariehamn

CURRENT METAR :
  • 221950Z AUTO 26011G23KT 200V310 CAVOK 05/00 Q0977

EXPIRED METARs :
  • 221920Z AUTO 26010G25KT 210V330 CAVOK 05/01 Q0976
  • 221850Z AUTO 26008G19KT 210V320 9999 FEW047 BKN092 05/02 Q0975
  • 221820Z AUTO 27008KT 220V320 9999 -RA BKN021 04/02 Q0975
  • 221750Z AUTO 29020G36KT 230V320 9000 -SHRA OVC016 //////CB 04/02 Q0975
  • 221720Z AUTO 24014G34KT 200V280 9999 -SHRA OVC023 06/01 Q0973

TAF AMD TAF EFMA
Valid from the 22 at 18:00 until the 23 at 03:00 UTC


221854Z 2218/2303 25008KT 9999 FEW040
TEMPO 2218/2224 25024G34KT



MET'MAP, your aeronautical weather chart ! - Copyright ORBIFLY December 2007 - Disclaimer

ORBIFLY MET'MAP TEAM :

Programming & Development : Alexandra Zaïnal
Concept & original design : Baudouin d'Aumeries
Assistance for programming : Marc-Olivier Méhu
Technical & hardware support : Manuel Goepfert

Contact : metmap@orbifly.com




SOURCES & CREDITS :

   NOAA